createdAt,value
2022-09-01T00:00:13.663Z,11.35
2022-09-01T00:02:43.477Z,10.07
2022-09-01T00:05:11.119Z,9.15
2022-09-01T00:07:38.646Z,9.95
2022-09-01T00:10:08.976Z,8.70
2022-09-01T00:12:39.168Z,8.75
2022-09-01T00:15:10.186Z,7.68
2022-09-01T00:17:37.854Z,8.40
2022-09-01T00:20:06.923Z,8.82
2022-09-01T00:22:34.340Z,9.25
2022-09-01T00:25:02.363Z,8.50
2022-09-01T00:27:31.211Z,9.00
2022-09-01T00:29:59.699Z,8.95
2022-09-01T00:32:28.020Z,8.80
2022-09-01T00:34:55.636Z,8.48
2022-09-01T00:37:23.141Z,8.32
2022-09-01T00:39:50.657Z,8.60
2022-09-01T00:42:18.141Z,8.23
2022-09-01T00:44:46.282Z,8.05
2022-09-01T00:47:15.208Z,8.35
2022-09-01T00:49:47.497Z,8.40
2022-09-01T00:52:29.831Z,8.07
2022-09-01T00:55:04.298Z,8.02
2022-09-01T00:57:31.826Z,8.00
2022-09-01T01:00:11.956Z,7.40
2022-09-01T01:02:41.117Z,7.22
2022-09-01T01:05:12.634Z,6.40
2022-09-01T01:07:48.021Z,6.53
2022-09-01T01:10:17.996Z,5.95
2022-09-01T01:12:45.658Z,6.25
2022-09-01T01:15:14.487Z,5.88
2022-09-01T01:17:41.973Z,5.70
2022-09-01T01:20:30.303Z,5.78
2022-09-01T01:23:17.053Z,5.70
2022-09-01T01:25:55.530Z,5.75
2022-09-01T01:28:27.326Z,5.13
2022-09-01T01:31:01.877Z,4.10
2022-09-01T01:33:42.727Z,3.67
2022-09-01T01:36:17.563Z,3.53
2022-09-01T01:38:49.041Z,3.70
2022-09-01T01:41:20.096Z,3.08
2022-09-01T01:43:51.327Z,3.28
2022-09-01T01:46:20.705Z,3.70
2022-09-01T01:48:52.603Z,2.60
2022-09-01T01:51:25.359Z,2.97
2022-09-01T01:53:53.761Z,2.97
2022-09-01T01:56:25.870Z,3.65
2022-09-01T01:58:55.700Z,3.15
2022-09-01T02:01:26.188Z,3.30
2022-09-01T02:03:55.061Z,3.25
2022-09-01T02:06:25.379Z,3.55
2022-09-01T02:08:58.355Z,3.45
2022-09-01T02:11:26.683Z,3.53
2022-09-01T02:13:57.678Z,3.38
2022-09-01T02:16:28.270Z,3.80
2022-09-01T02:18:57.223Z,3.50
2022-09-01T02:21:27.342Z,4.18
2022-09-01T02:24:02.322Z,4.53
2022-09-01T02:26:42.492Z,5.30
2022-09-01T02:29:18.225Z,5.78
2022-09-01T02:31:48.505Z,4.82
2022-09-01T02:34:17.371Z,6.95
2022-09-01T02:36:50.579Z,5.90
2022-09-01T02:39:29.314Z,7.38
2022-09-01T02:41:57.447Z,6.55
2022-09-01T02:44:29.469Z,6.15
2022-09-01T02:46:57.982Z,7.80
2022-09-01T02:49:30.121Z,8.02
2022-09-01T02:52:01.977Z,8.95
2022-09-01T02:54:32.038Z,7.50
2022-09-01T02:57:00.083Z,8.93
2022-09-01T02:59:30.139Z,7.63
2022-09-01T03:02:00.389Z,10.40
2022-09-01T03:04:35.163Z,8.07
2022-09-01T03:07:07.455Z,9.38
2022-09-01T03:09:35.750Z,10.00
2022-09-01T03:12:03.887Z,8.40
2022-09-01T03:14:33.004Z,8.00
2022-09-01T03:17:00.994Z,7.72
2022-09-01T03:19:32.138Z,8.57
2022-09-01T03:22:00.417Z,7.15
2022-09-01T03:24:32.483Z,7.68
2022-09-01T03:27:01.367Z,8.75
2022-09-01T03:29:28.938Z,9.40
2022-09-01T03:31:56.653Z,8.35
2022-09-01T03:34:24.420Z,8.48
2022-09-01T03:36:54.659Z,9.75
2022-09-01T03:39:30.005Z,8.93
2022-09-01T03:41:59.161Z,8.88
2022-09-01T03:44:27.704Z,11.10
2022-09-01T03:46:55.796Z,9.38
2022-09-01T03:49:28.028Z,9.27
2022-09-01T03:51:57.664Z,8.95
2022-09-01T03:54:27.583Z,9.20
2022-09-01T03:56:55.386Z,10.40
2022-09-01T03:59:25.804Z,9.35
2022-09-01T04:01:53.744Z,10.35
2022-09-01T04:04:22.229Z,9.95
2022-09-01T04:06:49.952Z,9.57
2022-09-01T04:09:17.775Z,9.15
2022-09-01T04:11:46.550Z,9.50
2022-09-01T04:14:15.872Z,10.23
2022-09-01T04:17:02.950Z,11.10
2022-09-01T04:19:37.227Z,11.05
2022-09-01T04:22:05.879Z,9.93
2022-09-01T04:24:45.085Z,10.75
2022-09-01T04:27:14.218Z,10.45
2022-09-01T04:29:43.035Z,12.23
2022-09-01T04:32:13.369Z,11.15
2022-09-01T04:34:51.239Z,12.00
2022-09-01T04:37:21.602Z,11.63
2022-09-01T04:39:59.605Z,11.45
2022-09-01T04:42:30.112Z,11.65
2022-09-01T04:45:02.146Z,10.10
2022-09-01T04:47:45.722Z,10.02
2022-09-01T04:50:18.218Z,11.00
2022-09-01T04:53:06.477Z,13.00
2022-09-01T04:55:45.416Z,11.32
2022-09-01T04:58:18.099Z,9.43
2022-09-01T05:00:52.470Z,10.10
2022-09-01T05:03:24.790Z,11.68
2022-09-01T05:06:05.995Z,10.60
2022-09-01T05:08:36.372Z,11.50
2022-09-01T05:11:19.060Z,10.82
2022-09-01T05:13:49.628Z,11.43
2022-09-01T05:16:25.204Z,11.20
2022-09-01T05:18:57.321Z,10.05
2022-09-01T05:21:30.027Z,11.85
2022-09-01T05:24:01.664Z,11.98
2022-09-01T05:26:32.328Z,10.77
2022-09-01T05:29:02.712Z,11.20
2022-09-01T05:31:38.277Z,13.70
2022-09-01T05:34:09.959Z,12.07
2022-09-01T05:36:42.481Z,12.48
2022-09-01T05:39:12.482Z,12.45
2022-09-01T05:41:41.662Z,12.18
2022-09-01T05:44:11.486Z,14.40
2022-09-01T05:46:40.185Z,12.95
2022-09-01T05:49:16.417Z,14.48
2022-09-01T05:51:50.505Z,14.25
2022-09-01T05:54:27.579Z,17.90
2022-09-01T05:57:13.092Z,16.90
2022-09-01T05:59:54.243Z,13.10
2022-09-01T06:02:27.582Z,16.80
2022-09-01T06:04:57.598Z,14.27
2022-09-01T06:10:01.220Z,16.65
2022-09-01T06:12:30.959Z,17.48
2022-09-01T06:14:59.351Z,20.70
2022-09-01T06:17:29.185Z,24.00
2022-09-01T06:20:01.203Z,22.50
2022-09-01T06:22:30.979Z,20.00
2022-09-01T06:25:03.235Z,18.30
2022-09-01T06:27:42.903Z,17.17
2022-09-01T06:30:21.326Z,16.77
2022-09-01T06:33:02.250Z,15.38
2022-09-01T06:35:32.675Z,18.88
2022-09-01T06:38:02.195Z,18.40
2022-09-01T06:40:54.618Z,18.75
2022-09-01T06:43:23.530Z,18.33
2022-09-01T06:45:55.035Z,20.35
2022-09-01T06:48:27.202Z,17.10
2022-09-01T06:51:19.969Z,16.48
2022-09-01T06:53:56.914Z,20.80
2022-09-01T06:56:32.282Z,16.65
2022-09-01T06:59:06.329Z,16.95
2022-09-01T07:01:39.240Z,19.55
2022-09-01T07:04:12.917Z,20.88
2022-09-01T07:09:47.578Z,23.60
2022-09-01T07:12:38.303Z,20.20
2022-09-01T07:17:56.793Z,26.70
2022-09-01T07:20:27.818Z,21.63
2022-09-01T07:23:06.471Z,28.80
2022-09-01T07:26:01.526Z,20.67
2022-09-01T07:28:36.393Z,25.27
2022-09-01T07:34:37.629Z,24.88
2022-09-01T07:39:51.524Z,22.55
2022-09-01T07:46:00.550Z,23.17
2022-09-01T07:51:36.824Z,25.95
2022-09-01T07:54:06.192Z,24.98
2022-09-01T07:56:39.777Z,25.00
2022-09-01T07:59:15.092Z,33.50
2022-09-01T08:02:06.208Z,28.38
2022-09-01T08:04:34.854Z,26.45
2022-09-01T08:07:04.522Z,25.40
2022-09-01T08:09:38.239Z,26.73
2022-09-01T08:12:12.559Z,31.33
2022-09-01T08:14:46.926Z,26.17
2022-09-01T08:17:33.108Z,25.80
2022-09-01T08:20:12.979Z,32.88
2022-09-01T08:22:53.594Z,27.38
2022-09-01T08:25:26.539Z,25.23
2022-09-01T08:28:02.688Z,27.40
2022-09-01T08:30:32.790Z,29.90
2022-09-01T08:33:10.848Z,31.25
2022-09-01T08:35:44.720Z,33.47
2022-09-01T08:38:13.156Z,30.55
2022-09-01T08:40:43.476Z,31.75
2022-09-01T08:43:25.289Z,30.25
2022-09-01T08:46:02.826Z,29.02
2022-09-01T08:52:02.868Z,25.52
2022-09-01T08:54:45.518Z,22.90
2022-09-01T08:57:23.263Z,26.90
2022-09-01T09:00:17.041Z,26.02
2022-09-01T09:03:06.170Z,30.58
2022-09-01T09:05:43.742Z,26.63
2022-09-01T09:08:14.239Z,27.25
2022-09-01T09:11:10.968Z,28.83
2022-09-01T09:14:11.628Z,24.95
2022-09-01T09:16:43.346Z,23.95
2022-09-01T09:19:30.658Z,23.20
2022-09-01T09:22:02.017Z,27.33
2022-09-01T09:24:47.636Z,27.00
2022-09-01T09:27:30.201Z,25.85
2022-09-01T09:30:07.309Z,24.42
2022-09-01T09:33:46.708Z,23.38
2022-09-01T09:35:57.862Z,31.60
2022-09-01T09:38:29.534Z,26.45
2022-09-01T09:41:20.312Z,23.45
2022-09-01T09:43:59.146Z,26.83
2022-09-01T09:46:33.058Z,24.88
2022-09-01T09:49:36.717Z,24.58
2022-09-01T09:52:16.466Z,23.63
2022-09-01T09:55:24.485Z,31.58
2022-09-01T09:57:55.597Z,21.90
2022-09-01T10:00:34.508Z,24.55
2022-09-01T10:03:10.868Z,23.45
2022-09-01T10:05:44.401Z,18.33
2022-09-01T10:08:16.520Z,25.50
2022-09-01T10:10:57.470Z,23.98
2022-09-01T10:13:33.024Z,23.23
2022-09-01T10:18:45.340Z,23.75
2022-09-01T10:21:17.659Z,21.30
2022-09-01T10:23:45.203Z,20.27
2022-09-01T10:26:24.515Z,20.27
2022-09-01T10:29:16.942Z,20.20
2022-09-01T10:31:44.524Z,19.80
2022-09-01T10:34:19.507Z,20.33
2022-09-01T10:36:55.781Z,19.00
2022-09-01T10:39:28.327Z,19.25
2022-09-01T10:42:07.703Z,17.80
2022-09-01T10:44:57.765Z,22.00
2022-09-01T10:47:38.223Z,20.02
2022-09-01T10:50:26.266Z,18.25
2022-09-01T10:52:56.409Z,21.10
2022-09-01T10:55:29.454Z,19.95
2022-09-01T11:04:10.013Z,16.23
2022-09-01T11:07:11.673Z,16.33
2022-09-01T11:09:36.555Z,17.38
2022-09-01T11:12:16.696Z,14.77
2022-09-01T11:15:00.407Z,15.95
2022-09-01T11:17:36.655Z,18.10
2022-09-01T11:20:23.446Z,16.58
2022-09-01T11:23:28.029Z,17.40
2022-09-01T11:28:47.775Z,16.30
2022-09-01T11:31:24.681Z,15.10
2022-09-01T11:34:14.861Z,15.52
2022-09-01T11:36:48.302Z,15.23
2022-09-01T11:39:19.046Z,14.63
2022-09-01T11:42:14.977Z,13.20
2022-09-01T11:44:52.095Z,14.88
2022-09-01T11:47:29.806Z,14.77
2022-09-01T11:50:01.230Z,14.48
2022-09-01T11:52:36.607Z,15.85
2022-09-01T11:55:07.293Z,14.18
2022-09-01T11:57:41.074Z,14.30
2022-09-01T12:00:12.319Z,13.02
2022-09-01T12:02:50.171Z,13.48
2022-09-01T12:05:34.014Z,13.85
2022-09-01T12:08:14.616Z,11.80
2022-09-01T12:10:44.649Z,16.90
2022-09-01T12:13:23.498Z,13.02
2022-09-01T12:16:17.367Z,13.05
2022-09-01T12:18:51.750Z,12.32
2022-09-01T12:21:44.265Z,11.68
2022-09-01T12:26:49.843Z,10.80
2022-09-01T12:29:18.302Z,11.88
2022-09-01T12:31:48.895Z,10.40
2022-09-01T12:34:34.767Z,11.48
2022-09-01T12:37:25.645Z,11.27
2022-09-01T12:39:58.268Z,13.85
2022-09-01T12:42:40.973Z,12.23
2022-09-01T12:45:11.276Z,12.25
2022-09-01T12:47:41.139Z,12.25
2022-09-01T12:50:11.967Z,11.27
2022-09-01T12:52:54.399Z,11.52
2022-09-01T12:58:22.645Z,10.85
2022-09-01T13:01:07.170Z,10.20
2022-09-01T13:03:43.854Z,9.90
2022-09-01T13:06:11.713Z,9.82
2022-09-01T13:08:40.109Z,9.68
2022-09-01T13:11:11.278Z,10.50
2022-09-01T13:13:39.123Z,9.75
2022-09-01T13:16:14.198Z,10.27
2022-09-01T13:21:32.463Z,9.77
2022-09-01T13:24:00.286Z,10.35
2022-09-01T13:26:31.611Z,8.98
2022-09-01T13:29:00.225Z,9.00
2022-09-01T13:31:30.341Z,9.55
2022-09-01T13:34:22.269Z,8.25
2022-09-01T13:36:51.052Z,9.38
2022-09-01T13:39:20.586Z,8.50
2022-09-01T13:41:49.643Z,8.65
2022-09-01T13:44:18.825Z,7.65
2022-09-01T13:49:44.031Z,7.32
2022-09-01T13:52:22.191Z,5.90
2022-09-01T13:54:49.595Z,6.03
2022-09-01T13:57:18.151Z,7.50
2022-09-01T13:59:45.671Z,7.32
2022-09-01T14:02:13.286Z,8.13
2022-09-01T14:04:40.791Z,7.95
2022-09-01T14:07:08.348Z,8.63
2022-09-01T14:09:35.855Z,8.45
2022-09-01T14:12:03.599Z,8.95
2022-09-01T14:17:19.203Z,7.53
2022-09-01T14:19:51.294Z,9.13
2022-09-01T14:22:18.862Z,8.45
2022-09-01T14:24:46.373Z,8.23
2022-09-01T14:27:16.171Z,7.95
2022-09-01T14:32:10.182Z,8.20
2022-09-01T14:34:37.822Z,6.72
2022-09-01T14:37:05.845Z,7.65
2022-09-01T14:39:34.129Z,7.30
2022-09-01T14:42:01.639Z,7.55
2022-09-01T14:44:29.165Z,7.32
2022-09-01T14:46:56.644Z,7.10
2022-09-01T14:49:24.228Z,7.00
2022-09-01T14:54:42.734Z,6.90
2022-09-01T14:59:59.952Z,7.22
2022-09-01T15:02:28.986Z,7.43
2022-09-01T15:04:57.360Z,7.63
2022-09-01T15:07:25.070Z,6.68
2022-09-01T15:09:53.028Z,6.57
2022-09-01T15:12:20.872Z,6.90
2022-09-01T15:14:48.511Z,6.40
2022-09-01T15:17:15.967Z,6.25
2022-09-01T15:19:43.624Z,7.65
2022-09-01T15:22:14.713Z,7.18
2022-09-01T15:24:43.361Z,6.82
2022-09-01T15:27:11.740Z,7.00
2022-09-01T15:29:45.912Z,6.95
2022-09-01T15:32:15.249Z,7.13
2022-09-01T15:34:51.306Z,6.60
2022-09-01T15:37:18.797Z,6.95
2022-09-01T15:39:46.205Z,6.38
2022-09-01T15:42:13.673Z,7.30
2022-09-01T15:44:41.198Z,6.68
2022-09-01T15:47:08.636Z,6.60
2022-09-01T15:49:36.653Z,7.10
2022-09-01T15:52:04.262Z,7.07
2022-09-01T15:54:31.901Z,7.32
2022-09-01T15:56:59.411Z,6.65
2022-09-01T15:59:26.941Z,7.47
2022-09-01T16:01:57.870Z,7.05
2022-09-01T16:04:28.005Z,6.93
2022-09-01T16:06:56.937Z,7.10
2022-09-01T16:09:26.130Z,7.40
2022-09-01T16:11:54.361Z,7.43
2022-09-01T16:14:23.843Z,7.18
2022-09-01T16:17:02.533Z,7.57
2022-09-01T16:20:00.210Z,7.30
2022-09-01T16:22:29.622Z,6.47
2022-09-01T16:25:01.574Z,7.63
2022-09-01T16:27:36.038Z,7.68
2022-09-01T16:30:13.390Z,8.10
2022-09-01T16:32:46.470Z,7.20
2022-09-01T16:35:16.703Z,7.47
2022-09-01T16:37:49.869Z,7.40
2022-09-01T16:40:42.924Z,7.80
2022-09-01T16:43:31.920Z,7.20
2022-09-01T16:46:02.027Z,7.78
2022-09-01T16:48:35.512Z,6.93
2022-09-01T16:53:52.755Z,7.47
2022-09-01T16:56:35.036Z,7.18
2022-09-01T16:59:27.285Z,7.53
2022-09-01T17:02:01.843Z,7.65
2022-09-01T17:04:47.734Z,7.00
2022-09-01T17:07:16.947Z,8.48
2022-09-01T17:10:05.294Z,8.77
2022-09-01T17:12:50.768Z,8.05
2022-09-01T17:15:26.775Z,9.18
2022-09-01T17:18:22.501Z,8.68
2022-09-01T17:21:21.335Z,9.27
2022-09-01T17:23:58.131Z,8.70
2022-09-01T17:26:28.752Z,8.90
2022-09-01T17:29:10.552Z,7.25
2022-09-01T17:32:00.138Z,8.48
2022-09-01T17:34:42.692Z,8.18
2022-09-01T17:37:43.231Z,8.48
2022-09-01T17:40:22.057Z,7.97
2022-09-01T17:43:05.366Z,11.15
2022-09-01T17:45:51.455Z,8.63
2022-09-01T17:48:32.182Z,8.80
2022-09-01T17:51:36.191Z,8.00
2022-09-01T17:54:51.997Z,8.48
2022-09-01T17:57:38.458Z,7.88
2022-09-01T18:00:26.019Z,8.55
2022-09-01T18:03:02.612Z,8.43
2022-09-01T18:05:39.463Z,8.63
2022-09-01T18:08:37.898Z,8.23
2022-09-01T18:11:15.249Z,8.77
2022-09-01T18:14:21.202Z,8.73
2022-09-01T18:16:48.633Z,7.57
2022-09-01T18:19:24.659Z,9.55
2022-09-01T18:22:01.777Z,11.38
2022-09-01T18:24:41.172Z,9.82
2022-09-01T18:27:09.503Z,21.38
2022-09-01T18:29:36.994Z,23.48
2022-09-01T18:32:18.146Z,24.02
2022-09-01T18:35:08.591Z,74.05
2022-09-01T18:38:12.352Z,9.60
2022-09-01T18:41:27.599Z,10.52
2022-09-01T18:44:22.971Z,45.60
2022-09-01T18:47:17.439Z,30.48
2022-09-01T18:50:19.343Z,34.40
2022-09-01T18:53:30.186Z,28.33
2022-09-01T18:56:20.313Z,16.95
2022-09-01T18:58:53.587Z,62.63
2022-09-01T19:01:33.053Z,33.45
2022-09-01T19:04:29.238Z,18.10
2022-09-01T19:07:10.875Z,20.08
2022-09-01T19:09:51.249Z,20.63
2022-09-01T19:12:39.850Z,44.15
2022-09-01T19:15:12.225Z,21.70
2022-09-01T19:17:58.631Z,21.33
2022-09-01T19:20:58.114Z,14.10
2022-09-01T19:23:46.648Z,15.10
2022-09-01T19:26:23.096Z,31.83
2022-09-01T19:29:04.896Z,30.02
2022-09-01T19:31:36.947Z,21.42
2022-09-01T19:34:15.284Z,43.40
2022-09-01T19:36:55.540Z,17.90
2022-09-01T19:39:26.973Z,25.27
2022-09-01T19:42:02.542Z,16.42
2022-09-01T19:44:56.045Z,46.10
2022-09-01T19:48:08.266Z,57.25
2022-09-01T19:50:41.342Z,21.20
2022-09-01T19:53:21.382Z,29.75
2022-09-01T19:56:08.041Z,35.80
2022-09-01T19:58:54.808Z,18.23
2022-09-01T20:01:46.717Z,15.48
2022-09-01T20:04:27.757Z,12.45
2022-09-01T20:07:00.557Z,13.38
2022-09-01T20:09:46.599Z,12.57
2022-09-01T20:12:32.628Z,12.68
2022-09-01T20:15:11.432Z,12.70
2022-09-01T20:17:57.327Z,12.80
2022-09-01T20:20:43.712Z,13.40
2022-09-01T20:23:33.028Z,13.07
2022-09-01T20:26:40.066Z,13.10
2022-09-01T20:29:24.732Z,13.02
2022-09-01T20:31:57.619Z,16.73
2022-09-01T20:34:52.176Z,13.02
2022-09-01T20:37:43.571Z,11.18
2022-09-01T20:40:14.054Z,10.32
2022-09-01T20:43:11.485Z,12.38
2022-09-01T20:45:39.446Z,10.95
2022-09-01T20:48:14.662Z,11.20
2022-09-01T20:50:44.951Z,11.30
2022-09-01T20:53:12.430Z,12.40
2022-09-01T20:55:48.407Z,11.25
2022-09-01T20:58:46.301Z,12.20
2022-09-01T21:01:46.644Z,12.70
2022-09-01T21:04:36.130Z,11.95
2022-09-01T21:07:14.138Z,11.10
2022-09-01T21:09:47.404Z,11.60
2022-09-01T21:12:14.878Z,11.90
2022-09-01T21:15:08.739Z,10.77
2022-09-01T21:17:43.748Z,10.88
2022-09-01T21:20:32.953Z,11.68
2022-09-01T21:23:01.448Z,10.45
2022-09-01T21:25:31.187Z,10.85
2022-09-01T21:28:02.505Z,10.98
2022-09-01T21:30:35.725Z,11.55
2022-09-01T21:33:04.731Z,10.50
2022-09-01T21:35:32.431Z,10.02
2022-09-01T21:37:59.870Z,15.68
2022-09-01T21:40:27.556Z,10.80
2022-09-01T21:43:00.525Z,10.20
2022-09-01T21:45:28.316Z,10.50
2022-09-01T21:47:56.276Z,10.90
2022-09-01T21:50:25.643Z,10.90
2022-09-01T21:52:53.164Z,10.30
2022-09-01T21:55:23.494Z,9.77
2022-09-01T21:57:52.106Z,9.68
2022-09-01T22:00:23.354Z,10.52
2022-09-01T22:02:51.207Z,11.05
2022-09-01T22:05:18.858Z,10.30
2022-09-01T22:07:47.977Z,12.13
2022-09-01T22:10:18.629Z,11.52
2022-09-01T22:12:47.739Z,11.05
2022-09-01T22:15:19.136Z,11.45
2022-09-01T22:17:47.839Z,11.43
2022-09-01T22:20:18.824Z,10.73
2022-09-01T22:22:47.267Z,11.02
2022-09-01T22:25:20.935Z,10.32
2022-09-01T22:27:48.360Z,10.95
2022-09-01T22:30:16.954Z,9.32
2022-09-01T22:32:45.616Z,10.13
2022-09-01T22:35:15.095Z,8.98
2022-09-01T22:37:42.724Z,7.90
2022-09-01T22:40:11.756Z,7.63
2022-09-01T22:42:39.235Z,8.30
2022-09-01T22:45:08.796Z,8.80
2022-09-01T22:47:38.496Z,8.88
2022-09-01T22:50:07.827Z,8.15
2022-09-01T22:52:37.287Z,8.80
2022-09-01T22:55:06.507Z,8.18
2022-09-01T22:57:34.593Z,7.82
2022-09-01T23:00:02.130Z,7.95
2022-09-01T23:02:31.615Z,7.78
2022-09-01T23:04:59.075Z,7.70
2022-09-01T23:07:26.589Z,8.07
2022-09-01T23:09:53.998Z,7.72
2022-09-01T23:12:22.179Z,8.80
2022-09-01T23:14:49.977Z,8.25
2022-09-01T23:17:17.458Z,7.93
2022-09-01T23:19:44.976Z,8.48
2022-09-01T23:22:12.442Z,7.68
2022-09-01T23:24:39.917Z,13.63
2022-09-01T23:27:07.455Z,7.65
2022-09-01T23:29:38.127Z,8.05
2022-09-01T23:32:05.831Z,8.32
2022-09-01T23:34:33.438Z,8.68
2022-09-01T23:37:00.899Z,8.70
2022-09-01T23:39:28.393Z,9.82
2022-09-01T23:41:55.905Z,9.73
2022-09-01T23:44:23.895Z,10.48
2022-09-01T23:46:51.352Z,12.65
2022-09-01T23:49:19.688Z,8.55
2022-09-01T23:51:47.953Z,8.32
2022-09-01T23:54:15.996Z,8.07
2022-09-01T23:56:43.508Z,9.00
2022-09-01T23:59:11.015Z,9.13
